Aérodrome :
LOGIN :

S'inscrire | Disclaimer

   EN    FR    IT 

 










Légende :    VFR   VFR Marginal   IFR   IFR Intensif   IFR Très Intensif
Visi : 
Plafond : 
>= 8 km
>= 3000ft
5 à 8 km
1000 à 3000 ft
1500m à 5 km
500 à 1000 ft
800 à 1500m
200 à 500 ft
< 800m
< 200 ft
Symboles :   Orages  Brouillard  Fortes neiges  Fortes précipitations  Vent > 20 kt
SIGMETs :   Divers  Orages  Givrage  Turbulence  Onde Orograph.  Cendres Volcan.






- Altitude de l'aérodrome : 423 ft
- Code IATA : PIS


LFBI - Poitiers

DERNIER METAR :
  • 220000Z AUTO 36007KT CAVOK 04/00 Q1025 NOSIG

METARs EXPIRÉS :
  • 212330Z AUTO 35005KT CAVOK 04/00 Q1025 NOSIG
  • 212300Z AUTO 01006KT CAVOK 04/01 Q1025 NOSIG
  • 212230Z AUTO 01006KT CAVOK 04/01 Q1025 NOSIG
  • 212200Z AUTO 02008KT CAVOK 05/01 Q1025 NOSIG
  • 212130Z AUTO 01009KT CAVOK 06/02 Q1025 NOSIG
  • 212100Z AUTO 01010KT CAVOK 07/02 Q1024 TEMPO 03015G25KT SCT040TCU
  • 212030Z AUTO 36008KT CAVOK 07/01 Q1024 TEMPO 03015G25KT SCT040TCU
  • 212000Z AUTO 02008KT CAVOK 07/01 Q1024 TEMPO 03015G25KT SCT040TCU
  • 211930Z AUTO 03012KT CAVOK 08/01 Q1024 TEMPO 03015G25KT SCT040TCU

TAF TAF LFBI
Valide du 22 à 00h jusqu'au 23 à 00h UTC


212300Z 2200/2224 01006KT CAVOK



MET'MAP, la Météo Aéronautique d'un coup d'oeil ! - Copyright ORBIFLY Décembre 2007 - Disclaimer

ORBIFLY MET'MAP TEAM :

Programmation & Développement : Alexandra Zaïnal
Sur une idée originale de : Baudouin d'Aumeries
Soutien technique & logistique : Manuel Goepfert
Assistance : Marc-Olivier Méhu




SOURCES & CREDITS :

   NOAA